sensor_id;sensor_type;location;lat;lon;timestamp;temperature;humidity
2130;DHT22;1071;52.544;13.374;2023-05-07T00:02:05;11.30;99.90
2130;DHT22;1071;52.544;13.374;2023-05-07T00:04:32;11.30;99.90
2130;DHT22;1071;52.544;13.374;2023-05-07T00:07:03;11.30;99.90
2130;DHT22;1071;52.544;13.374;2023-05-07T00:09:31;11.30;99.90
2130;DHT22;1071;52.544;13.374;2023-05-07T00:11:58;11.20;99.90
2130;DHT22;1071;52.544;13.374;2023-05-07T00:14:25;11.30;99.90
2130;DHT22;1071;52.544;13.374;2023-05-07T00:16:52;11.20;99.90
2130;DHT22;1071;52.544;13.374;2023-05-07T00:19:19;11.30;99.90
2130;DHT22;1071;52.544;13.374;2023-05-07T00:21:46;11.20;99.90
2130;DHT22;1071;52.544;13.374;2023-05-07T00:24:13;11.30;99.90
2130;DHT22;1071;52.544;13.374;2023-05-07T00:26:42;11.30;99.90
2130;DHT22;1071;52.544;13.374;2023-05-07T00:29:09;11.30;99.90
2130;DHT22;1071;52.544;13.374;2023-05-07T00:31:36;11.30;99.90
2130;DHT22;1071;52.544;13.374;2023-05-07T00:34:05;11.30;99.90
2130;DHT22;1071;52.544;13.374;2023-05-07T00:36:32;11.30;99.90
2130;DHT22;1071;52.544;13.374;2023-05-07T00:39:00;11.30;99.90
2130;DHT22;1071;52.544;13.374;2023-05-07T00:41:29;11.30;99.90
2130;DHT22;1071;52.544;13.374;2023-05-07T00:43:57;11.30;99.90
2130;DHT22;1071;52.544;13.374;2023-05-07T00:46:28;11.30;99.90
2130;DHT22;1071;52.544;13.374;2023-05-07T00:48:55;11.30;99.90
2130;DHT22;1071;52.544;13.374;2023-05-07T00:51:23;11.30;99.90
2130;DHT22;1071;52.544;13.374;2023-05-07T00:53:53;11.30;99.90
2130;DHT22;1071;52.544;13.374;2023-05-07T00:56:20;11.30;99.90
2130;DHT22;1071;52.544;13.374;2023-05-07T00:58:48;11.30;99.90
2130;DHT22;1071;52.544;13.374;2023-05-07T01:01:16;11.30;99.90
2130;DHT22;1071;52.544;13.374;2023-05-07T01:03:43;11.20;99.90
2130;DHT22;1071;52.544;13.374;2023-05-07T01:06:10;11.20;99.90
2130;DHT22;1071;52.544;13.374;2023-05-07T01:08:42;11.20;99.90
2130;DHT22;1071;52.544;13.374;2023-05-07T01:11:09;11.10;99.90
2130;DHT22;1071;52.544;13.374;2023-05-07T01:13:38;11.10;99.90
2130;DHT22;1071;52.544;13.374;2023-05-07T01:16:10;11.10;99.90
2130;DHT22;1071;52.544;13.374;2023-05-07T01:18:38;11.10;99.90
2130;DHT22;1071;52.544;13.374;2023-05-07T01:21:05;11.10;99.90
2130;DHT22;1071;52.544;13.374;2023-05-07T01:23:35;11.10;99.90
2130;DHT22;1071;52.544;13.374;2023-05-07T01:26:03;11.20;99.90
2130;DHT22;1071;52.544;13.374;2023-05-07T01:28:30;11.20;99.90
2130;DHT22;1071;52.544;13.374;2023-05-07T01:31:00;11.20;99.90
2130;DHT22;1071;52.544;13.374;2023-05-07T01:33:30;11.20;99.90
2130;DHT22;1071;52.544;13.374;2023-05-07T01:35:59;11.20;99.90
2130;DHT22;1071;52.544;13.374;2023-05-07T01:38:29;11.20;99.90
2130;DHT22;1071;52.544;13.374;2023-05-07T01:40:58;11.20;99.90
2130;DHT22;1071;52.544;13.374;2023-05-07T01:43:25;11.30;99.90
2130;DHT22;1071;52.544;13.374;2023-05-07T01:45:53;11.30;99.90
2130;DHT22;1071;52.544;13.374;2023-05-07T01:48:20;11.30;99.90
2130;DHT22;1071;52.544;13.374;2023-05-07T01:50:48;11.30;99.90
2130;DHT22;1071;52.544;13.374;2023-05-07T01:53:15;11.30;99.90
2130;DHT22;1071;52.544;13.374;2023-05-07T01:55:42;11.20;99.90
2130;DHT22;1071;52.544;13.374;2023-05-07T01:58:12;11.10;99.90
2130;DHT22;1071;52.544;13.374;2023-05-07T02:00:39;11.10;99.90
2130;DHT22;1071;52.544;13.374;2023-05-07T02:03:06;11.10;99.90
2130;DHT22;1071;52.544;13.374;2023-05-07T02:05:33;11.10;99.90
2130;DHT22;1071;52.544;13.374;2023-05-07T02:08:00;11.10;99.90
2130;DHT22;1071;52.544;13.374;2023-05-07T02:10:27;11.10;99.90
2130;DHT22;1071;52.544;13.374;2023-05-07T02:12:54;11.10;99.90
2130;DHT22;1071;52.544;13.374;2023-05-07T02:15:23;11.10;99.90
2130;DHT22;1071;52.544;13.374;2023-05-07T02:18:01;11.10;99.90
2130;DHT22;1071;52.544;13.374;2023-05-07T02:20:28;11.10;99.90
2130;DHT22;1071;52.544;13.374;2023-05-07T02:22:55;11.20;99.90
2130;DHT22;1071;52.544;13.374;2023-05-07T02:25:22;11.10;99.90
2130;DHT22;1071;52.544;13.374;2023-05-07T02:27:50;11.10;99.90
2130;DHT22;1071;52.544;13.374;2023-05-07T02:30:20;11.10;99.90
2130;DHT22;1071;52.544;13.374;2023-05-07T02:32:54;11.10;99.90
2130;DHT22;1071;52.544;13.374;2023-05-07T02:35:21;11.10;99.90
2130;DHT22;1071;52.544;13.374;2023-05-07T02:37:51;11.10;99.90
2130;DHT22;1071;52.544;13.374;2023-05-07T02:40:18;11.10;99.90
2130;DHT22;1071;52.544;13.374;2023-05-07T02:42:47;11.20;99.90
2130;DHT22;1071;52.544;13.374;2023-05-07T02:45:14;11.20;99.90
2130;DHT22;1071;52.544;13.374;2023-05-07T02:47:41;11.20;99.90
2130;DHT22;1071;52.544;13.374;2023-05-07T02:50:10;11.30;99.90
2130;DHT22;1071;52.544;13.374;2023-05-07T02:52:37;11.20;99.90
2130;DHT22;1071;52.544;13.374;2023-05-07T02:55:05;11.20;99.90
2130;DHT22;1071;52.544;13.374;2023-05-07T02:57:32;11.20;99.90
2130;DHT22;1071;52.544;13.374;2023-05-07T02:59:59;11.20;99.90
2130;DHT22;1071;52.544;13.374;2023-05-07T03:02:26;11.20;99.90
2130;DHT22;1071;52.544;13.374;2023-05-07T03:04:53;11.10;99.90
2130;DHT22;1071;52.544;13.374;2023-05-07T03:07:21;11.20;99.90
2130;DHT22;1071;52.544;13.374;2023-05-07T03:09:48;11.20;99.90
2130;DHT22;1071;52.544;13.374;2023-05-07T03:12:15;11.20;99.90
2130;DHT22;1071;52.544;13.374;2023-05-07T03:14:42;11.20;99.90
2130;DHT22;1071;52.544;13.374;2023-05-07T03:17:11;11.20;99.90
2130;DHT22;1071;52.544;13.374;2023-05-07T03:19:39;11.20;99.90
2130;DHT22;1071;52.544;13.374;2023-05-07T03:22:06;11.20;99.90
2130;DHT22;1071;52.544;13.374;2023-05-07T03:24:34;11.20;99.90
2130;DHT22;1071;52.544;13.374;2023-05-07T03:27:01;11.20;99.90
2130;DHT22;1071;52.544;13.374;2023-05-07T03:29:28;11.10;99.90
2130;DHT22;1071;52.544;13.374;2023-05-07T03:31:55;11.10;99.90
2130;DHT22;1071;52.544;13.374;2023-05-07T03:34:23;11.10;99.90
2130;DHT22;1071;52.544;13.374;2023-05-07T03:36:50;11.10;99.90
2130;DHT22;1071;52.544;13.374;2023-05-07T03:39:17;11.20;99.90
2130;DHT22;1071;52.544;13.374;2023-05-07T03:41:45;11.20;99.90
2130;DHT22;1071;52.544;13.374;2023-05-07T03:44:13;11.20;99.90
2130;DHT22;1071;52.544;13.374;2023-05-07T03:46:40;11.20;99.90
2130;DHT22;1071;52.544;13.374;2023-05-07T03:49:07;11.20;99.90
2130;DHT22;1071;52.544;13.374;2023-05-07T03:51:34;11.20;99.90
2130;DHT22;1071;52.544;13.374;2023-05-07T03:54:03;11.10;99.90
2130;DHT22;1071;52.544;13.374;2023-05-07T03:56:30;11.10;99.90
2130;DHT22;1071;52.544;13.374;2023-05-07T03:58:58;11.00;99.90
2130;DHT22;1071;52.544;13.374;2023-05-07T04:01:25;11.00;99.90
2130;DHT22;1071;52.544;13.374;2023-05-07T04:03:52;11.00;99.90
2130;DHT22;1071;52.544;13.374;2023-05-07T04:06:19;11.00;99.90
2130;DHT22;1071;52.544;13.374;2023-05-07T04:08:46;11.00;99.90
2130;DHT22;1071;52.544;13.374;2023-05-07T04:11:13;10.90;99.90
2130;DHT22;1071;52.544;13.374;2023-05-07T04:13:44;10.90;99.90
2130;DHT22;1071;52.544;13.374;2023-05-07T04:16:15;10.90;99.90
2130;DHT22;1071;52.544;13.374;2023-05-07T04:18:42;10.90;99.90
2130;DHT22;1071;52.544;13.374;2023-05-07T04:21:14;10.90;99.90
2130;DHT22;1071;52.544;13.374;2023-05-07T04:23:48;11.00;99.90
2130;DHT22;1071;52.544;13.374;2023-05-07T04:26:18;10.90;99.90
2130;DHT22;1071;52.544;13.374;2023-05-07T04:28:46;10.90;99.90
2130;DHT22;1071;52.544;13.374;2023-05-07T04:31:15;10.90;99.90
2130;DHT22;1071;52.544;13.374;2023-05-07T04:33:41;10.90;99.90
2130;DHT22;1071;52.544;13.374;2023-05-07T04:36:09;10.90;99.90
2130;DHT22;1071;52.544;13.374;2023-05-07T04:38:36;10.90;99.90
2130;DHT22;1071;52.544;13.374;2023-05-07T04:41:05;10.90;99.90
2130;DHT22;1071;52.544;13.374;2023-05-07T04:43:32;11.00;99.90
2130;DHT22;1071;52.544;13.374;2023-05-07T04:45:59;11.00;99.90
2130;DHT22;1071;52.544;13.374;2023-05-07T04:48:28;11.00;99.90
2130;DHT22;1071;52.544;13.374;2023-05-07T04:50:55;11.00;99.90
2130;DHT22;1071;52.544;13.374;2023-05-07T04:53:22;11.00;99.90
2130;DHT22;1071;52.544;13.374;2023-05-07T04:55:54;11.00;99.90
2130;DHT22;1071;52.544;13.374;2023-05-07T04:58:21;11.00;99.90
2130;DHT22;1071;52.544;13.374;2023-05-07T05:00:48;11.00;99.90
2130;DHT22;1071;52.544;13.374;2023-05-07T05:03:15;11.10;99.90
2130;DHT22;1071;52.544;13.374;2023-05-07T05:05:44;11.10;99.90
2130;DHT22;1071;52.544;13.374;2023-05-07T05:08:15;11.10;99.90
2130;DHT22;1071;52.544;13.374;2023-05-07T05:10:42;11.10;99.90
2130;DHT22;1071;52.544;13.374;2023-05-07T05:13:10;11.00;99.90
2130;DHT22;1071;52.544;13.374;2023-05-07T05:15:38;11.00;99.90
2130;DHT22;1071;52.544;13.374;2023-05-07T05:18:05;11.00;99.90
2130;DHT22;1071;52.544;13.374;2023-05-07T05:20:32;11.00;99.90
2130;DHT22;1071;52.544;13.374;2023-05-07T05:23:00;11.10;99.90
2130;DHT22;1071;52.544;13.374;2023-05-07T05:25:27;11.10;99.90
2130;DHT22;1071;52.544;13.374;2023-05-07T05:27:55;11.10;99.90
2130;DHT22;1071;52.544;13.374;2023-05-07T05:30:22;11.20;99.90
2130;DHT22;1071;52.544;13.374;2023-05-07T05:32:49;11.20;99.90
2130;DHT22;1071;52.544;13.374;2023-05-07T05:35:16;11.30;99.90
2130;DHT22;1071;52.544;13.374;2023-05-07T05:37:43;11.30;99.90
2130;DHT22;1071;52.544;13.374;2023-05-07T05:40:12;11.30;99.90
2130;DHT22;1071;52.544;13.374;2023-05-07T05:42:39;11.30;99.90
2130;DHT22;1071;52.544;13.374;2023-05-07T05:45:07;11.20;99.90
2130;DHT22;1071;52.544;13.374;2023-05-07T05:47:34;11.20;99.90
2130;DHT22;1071;52.544;13.374;2023-05-07T05:50:02;11.30;99.90
2130;DHT22;1071;52.544;13.374;2023-05-07T05:52:32;11.40;99.90
2130;DHT22;1071;52.544;13.374;2023-05-07T05:54:59;11.40;99.90
2130;DHT22;1071;52.544;13.374;2023-05-07T05:57:27;11.40;99.90
2130;DHT22;1071;52.544;13.374;2023-05-07T05:59:55;11.50;99.90
2130;DHT22;1071;52.544;13.374;2023-05-07T06:02:22;11.60;99.90
2130;DHT22;1071;52.544;13.374;2023-05-07T06:04:49;11.60;99.90
2130;DHT22;1071;52.544;13.374;2023-05-07T06:07:16;11.70;99.90
2130;DHT22;1071;52.544;13.374;2023-05-07T06:09:43;11.70;99.90
2130;DHT22;1071;52.544;13.374;2023-05-07T06:12:10;11.70;99.90
2130;DHT22;1071;52.544;13.374;2023-05-07T06:14:38;11.80;99.90
2130;DHT22;1071;52.544;13.374;2023-05-07T06:17:06;11.90;99.90
2130;DHT22;1071;52.544;13.374;2023-05-07T06:19:38;12.00;99.90
2130;DHT22;1071;52.544;13.374;2023-05-07T06:22:11;12.00;99.90
2130;DHT22;1071;52.544;13.374;2023-05-07T06:24:37;12.00;99.90
2130;DHT22;1071;52.544;13.374;2023-05-07T06:27:08;12.00;99.90
2130;DHT22;1071;52.544;13.374;2023-05-07T06:29:35;12.10;99.90
2130;DHT22;1071;52.544;13.374;2023-05-07T06:32:10;12.20;99.90
2130;DHT22;1071;52.544;13.374;2023-05-07T06:34:38;12.20;99.90
2130;DHT22;1071;52.544;13.374;2023-05-07T06:37:06;12.30;99.90
2130;DHT22;1071;52.544;13.374;2023-05-07T06:39:33;12.30;99.90
2130;DHT22;1071;52.544;13.374;2023-05-07T06:42:00;12.30;99.90
2130;DHT22;1071;52.544;13.374;2023-05-07T06:44:29;12.30;99.90
2130;DHT22;1071;52.544;13.374;2023-05-07T06:46:56;12.30;99.90
2130;DHT22;1071;52.544;13.374;2023-05-07T06:49:24;12.30;99.90
2130;DHT22;1071;52.544;13.374;2023-05-07T06:51:51;12.40;99.90
2130;DHT22;1071;52.544;13.374;2023-05-07T06:54:18;12.40;99.90
2130;DHT22;1071;52.544;13.374;2023-05-07T06:56:47;12.40;99.90
2130;DHT22;1071;52.544;13.374;2023-05-07T06:59:17;12.50;99.90
2130;DHT22;1071;52.544;13.374;2023-05-07T07:01:47;12.50;99.90
2130;DHT22;1071;52.544;13.374;2023-05-07T07:04:17;12.50;99.90
2130;DHT22;1071;52.544;13.374;2023-05-07T07:06:49;12.50;99.90
2130;DHT22;1071;52.544;13.374;2023-05-07T07:09:18;12.50;99.90
2130;DHT22;1071;52.544;13.374;2023-05-07T07:11:45;12.60;99.90
2130;DHT22;1071;52.544;13.374;2023-05-07T07:14:12;12.60;99.90
2130;DHT22;1071;52.544;13.374;2023-05-07T07:16:39;12.80;99.90
2130;DHT22;1071;52.544;13.374;2023-05-07T07:19:07;12.90;99.90
2130;DHT22;1071;52.544;13.374;2023-05-07T07:21:34;13.10;99.90
2130;DHT22;1071;52.544;13.374;2023-05-07T07:24:03;13.30;99.90
2130;DHT22;1071;52.544;13.374;2023-05-07T07:26:30;13.60;99.90
2130;DHT22;1071;52.544;13.374;2023-05-07T07:29:01;13.80;99.90
2130;DHT22;1071;52.544;13.374;2023-05-07T07:31:28;14.00;99.90
2130;DHT22;1071;52.544;13.374;2023-05-07T07:33:55;14.20;99.90
2130;DHT22;1071;52.544;13.374;2023-05-07T07:36:22;14.30;99.90
2130;DHT22;1071;52.544;13.374;2023-05-07T07:38:49;14.50;99.90
2130;DHT22;1071;52.544;13.374;2023-05-07T07:41:18;14.50;99.90
2130;DHT22;1071;52.544;13.374;2023-05-07T07:43:45;14.50;99.90
2130;DHT22;1071;52.544;13.374;2023-05-07T07:46:13;14.60;99.90
2130;DHT22;1071;52.544;13.374;2023-05-07T07:48:40;14.60;99.90
2130;DHT22;1071;52.544;13.374;2023-05-07T07:51:07;14.60;99.90
2130;DHT22;1071;52.544;13.374;2023-05-07T07:53:34;14.60;99.90
2130;DHT22;1071;52.544;13.374;2023-05-07T07:56:01;14.70;99.90
2130;DHT22;1071;52.544;13.374;2023-05-07T07:58:29;14.80;99.90
2130;DHT22;1071;52.544;13.374;2023-05-07T08:00:56;14.80;99.90
2130;DHT22;1071;52.544;13.374;2023-05-07T08:03:24;14.90;99.90
2130;DHT22;1071;52.544;13.374;2023-05-07T08:05:51;14.90;99.90
2130;DHT22;1071;52.544;13.374;2023-05-07T08:08:19;14.80;99.90
2130;DHT22;1071;52.544;13.374;2023-05-07T08:10:47;14.90;99.90
2130;DHT22;1071;52.544;13.374;2023-05-07T08:13:18;14.90;99.90
2130;DHT22;1071;52.544;13.374;2023-05-07T08:15:47;15.00;99.90
2130;DHT22;1071;52.544;13.374;2023-05-07T08:18:14;15.10;99.90
2130;DHT22;1071;52.544;13.374;2023-05-07T08:20:41;15.00;99.90
2130;DHT22;1071;52.544;13.374;2023-05-07T08:23:16;15.00;99.90
2130;DHT22;1071;52.544;13.374;2023-05-07T08:25:45;15.00;99.90
2130;DHT22;1071;52.544;13.374;2023-05-07T08:28:12;15.00;99.90
2130;DHT22;1071;52.544;13.374;2023-05-07T08:30:47;15.00;99.90
2130;DHT22;1071;52.544;13.374;2023-05-07T08:33:14;15.00;99.90
2130;DHT22;1071;52.544;13.374;2023-05-07T08:35:41;15.20;99.90
2130;DHT22;1071;52.544;13.374;2023-05-07T08:38:08;15.30;99.90
2130;DHT22;1071;52.544;13.374;2023-05-07T08:40:39;15.30;99.90
2130;DHT22;1071;52.544;13.374;2023-05-07T08:43:07;15.40;99.90
2130;DHT22;1071;52.544;13.374;2023-05-07T08:45:34;15.50;99.90
2130;DHT22;1071;52.544;13.374;2023-05-07T08:48:08;15.50;99.90
2130;DHT22;1071;52.544;13.374;2023-05-07T08:50:36;15.60;99.90
2130;DHT22;1071;52.544;13.374;2023-05-07T08:53:03;15.50;99.90
2130;DHT22;1071;52.544;13.374;2023-05-07T08:55:30;15.50;99.90
2130;DHT22;1071;52.544;13.374;2023-05-07T08:57:58;15.50;99.90
2130;DHT22;1071;52.544;13.374;2023-05-07T09:00:26;15.50;99.90
2130;DHT22;1071;52.544;13.374;2023-05-07T09:02:53;15.70;99.90
2130;DHT22;1071;52.544;13.374;2023-05-07T09:05:22;15.70;99.90
2130;DHT22;1071;52.544;13.374;2023-05-07T09:07:50;15.70;99.90
2130;DHT22;1071;52.544;13.374;2023-05-07T09:10:21;15.70;99.90
2130;DHT22;1071;52.544;13.374;2023-05-07T09:12:48;15.80;99.90
2130;DHT22;1071;52.544;13.374;2023-05-07T09:15:15;15.80;99.90
2130;DHT22;1071;52.544;13.374;2023-05-07T09:17:43;15.70;99.90
2130;DHT22;1071;52.544;13.374;2023-05-07T09:20:13;15.60;99.90
2130;DHT22;1071;52.544;13.374;2023-05-07T09:22:42;15.60;99.90
2130;DHT22;1071;52.544;13.374;2023-05-07T09:25:09;15.60;99.90
2130;DHT22;1071;52.544;13.374;2023-05-07T09:27:38;15.60;99.90
2130;DHT22;1071;52.544;13.374;2023-05-07T09:30:06;15.50;99.90
2130;DHT22;1071;52.544;13.374;2023-05-07T09:32:35;15.50;99.90
2130;DHT22;1071;52.544;13.374;2023-05-07T09:35:04;15.50;99.90
2130;DHT22;1071;52.544;13.374;2023-05-07T09:37:31;15.70;99.90
2130;DHT22;1071;52.544;13.374;2023-05-07T09:40:00;15.70;99.90
2130;DHT22;1071;52.544;13.374;2023-05-07T09:42:27;15.80;99.90
2130;DHT22;1071;52.544;13.374;2023-05-07T09:44:54;15.80;99.90
2130;DHT22;1071;52.544;13.374;2023-05-07T09:47:24;15.80;99.90
2130;DHT22;1071;52.544;13.374;2023-05-07T09:49:55;15.70;99.90
2130;DHT22;1071;52.544;13.374;2023-05-07T09:52:23;15.60;99.90
2130;DHT22;1071;52.544;13.374;2023-05-07T09:54:51;15.50;99.90
2130;DHT22;1071;52.544;13.374;2023-05-07T09:57:22;15.50;99.90
2130;DHT22;1071;52.544;13.374;2023-05-07T09:59:52;15.50;99.90
2130;DHT22;1071;52.544;13.374;2023-05-07T10:02:20;15.50;99.90
2130;DHT22;1071;52.544;13.374;2023-05-07T10:04:48;15.40;99.90
2130;DHT22;1071;52.544;13.374;2023-05-07T10:07:16;15.30;99.90
2130;DHT22;1071;52.544;13.374;2023-05-07T10:09:43;15.40;99.90
2130;DHT22;1071;52.544;13.374;2023-05-07T10:12:12;15.30;99.90
2130;DHT22;1071;52.544;13.374;2023-05-07T10:14:41;15.30;99.90
2130;DHT22;1071;52.544;13.374;2023-05-07T10:17:09;15.30;99.90
2130;DHT22;1071;52.544;13.374;2023-05-07T10:19:38;15.40;99.90
2130;DHT22;1071;52.544;13.374;2023-05-07T10:22:06;15.50;99.90
2130;DHT22;1071;52.544;13.374;2023-05-07T10:24:35;15.50;99.90
2130;DHT22;1071;52.544;13.374;2023-05-07T10:27:07;15.50;99.90
2130;DHT22;1071;52.544;13.374;2023-05-07T10:29:57;15.70;99.90
2130;DHT22;1071;52.544;13.374;2023-05-07T10:32:35;15.80;99.90
2130;DHT22;1071;52.544;13.374;2023-05-07T10:35:09;15.90;99.90
2130;DHT22;1071;52.544;13.374;2023-05-07T10:37:37;16.10;99.90
2130;DHT22;1071;52.544;13.374;2023-05-07T10:40:05;16.10;99.90
2130;DHT22;1071;52.544;13.374;2023-05-07T10:42:33;16.00;99.90
2130;DHT22;1071;52.544;13.374;2023-05-07T10:45:13;16.10;99.90
2130;DHT22;1071;52.544;13.374;2023-05-07T10:48:11;16.10;99.90
2130;DHT22;1071;52.544;13.374;2023-05-07T10:50:38;16.10;99.90
2130;DHT22;1071;52.544;13.374;2023-05-07T10:53:22;16.10;99.90
2130;DHT22;1071;52.544;13.374;2023-05-07T10:58:36;16.30;99.90
2130;DHT22;1071;52.544;13.374;2023-05-07T11:01:09;16.20;99.90
2130;DHT22;1071;52.544;13.374;2023-05-07T11:04:13;16.20;99.90
2130;DHT22;1071;52.544;13.374;2023-05-07T11:06:41;16.30;99.90
2130;DHT22;1071;52.544;13.374;2023-05-07T11:09:08;16.30;99.90
2130;DHT22;1071;52.544;13.374;2023-05-07T11:11:44;16.40;99.90
2130;DHT22;1071;52.544;13.374;2023-05-07T11:14:12;16.40;99.60
2130;DHT22;1071;52.544;13.374;2023-05-07T11:16:41;16.40;99.50
2130;DHT22;1071;52.544;13.374;2023-05-07T11:19:10;16.50;99.60
2130;DHT22;1071;52.544;13.374;2023-05-07T11:21:38;16.60;99.10
2130;DHT22;1071;52.544;13.374;2023-05-07T11:24:06;16.60;99.30
2130;DHT22;1071;52.544;13.374;2023-05-07T11:26:47;16.50;99.00
2130;DHT22;1071;52.544;13.374;2023-05-07T11:29:16;16.60;99.10
2130;DHT22;1071;52.544;13.374;2023-05-07T11:31:48;16.60;99.00
2130;DHT22;1071;52.544;13.374;2023-05-07T11:34:15;16.50;99.20
2130;DHT22;1071;52.544;13.374;2023-05-07T11:36:50;16.40;99.20
2130;DHT22;1071;52.544;13.374;2023-05-07T11:39:27;16.40;99.40
2130;DHT22;1071;52.544;13.374;2023-05-07T11:41:55;16.50;99.00
2130;DHT22;1071;52.544;13.374;2023-05-07T11:44:22;16.50;99.20
2130;DHT22;1071;52.544;13.374;2023-05-07T11:46:51;16.50;98.80
2130;DHT22;1071;52.544;13.374;2023-05-07T11:49:18;16.50;98.40
2130;DHT22;1071;52.544;13.374;2023-05-07T11:51:45;16.50;98.20
2130;DHT22;1071;52.544;13.374;2023-05-07T11:54:16;16.50;98.20
2130;DHT22;1071;52.544;13.374;2023-05-07T11:56:44;16.50;98.30
2130;DHT22;1071;52.544;13.374;2023-05-07T11:59:16;16.60;98.30
2130;DHT22;1071;52.544;13.374;2023-05-07T12:01:45;16.70;97.90
2130;DHT22;1071;52.544;13.374;2023-05-07T12:04:14;16.90;97.80
2130;DHT22;1071;52.544;13.374;2023-05-07T12:06:46;17.00;97.50
2130;DHT22;1071;52.544;13.374;2023-05-07T12:09:17;17.00;97.50
2130;DHT22;1071;52.544;13.374;2023-05-07T12:11:46;17.20;97.50
2130;DHT22;1071;52.544;13.374;2023-05-07T12:14:13;17.30;97.00
2130;DHT22;1071;52.544;13.374;2023-05-07T12:16:41;17.20;96.70
2130;DHT22;1071;52.544;13.374;2023-05-07T12:19:09;17.30;96.70
2130;DHT22;1071;52.544;13.374;2023-05-07T12:21:39;17.30;96.30
2130;DHT22;1071;52.544;13.374;2023-05-07T12:24:08;17.30;96.30
2130;DHT22;1071;52.544;13.374;2023-05-07T12:26:37;17.20;96.40
2130;DHT22;1071;52.544;13.374;2023-05-07T12:29:06;17.30;96.20
2130;DHT22;1071;52.544;13.374;2023-05-07T12:31:33;17.20;96.20
2130;DHT22;1071;52.544;13.374;2023-05-07T12:34:00;17.20;96.50
2130;DHT22;1071;52.544;13.374;2023-05-07T12:36:37;17.20;96.40
2130;DHT22;1071;52.544;13.374;2023-05-07T12:39:06;17.20;96.30
2130;DHT22;1071;52.544;13.374;2023-05-07T12:41:36;17.20;96.10
2130;DHT22;1071;52.544;13.374;2023-05-07T12:44:18;17.30;96.00
2130;DHT22;1071;52.544;13.374;2023-05-07T12:46:46;17.30;95.80
2130;DHT22;1071;52.544;13.374;2023-05-07T12:49:13;17.40;95.80
2130;DHT22;1071;52.544;13.374;2023-05-07T12:51:40;17.40;95.50
2130;DHT22;1071;52.544;13.374;2023-05-07T12:54:08;17.50;95.10
2130;DHT22;1071;52.544;13.374;2023-05-07T12:56:36;17.50;95.00
2130;DHT22;1071;52.544;13.374;2023-05-07T12:59:03;17.50;95.10
2130;DHT22;1071;52.544;13.374;2023-05-07T13:01:30;17.40;95.00
2130;DHT22;1071;52.544;13.374;2023-05-07T13:04:02;17.40;95.10
2130;DHT22;1071;52.544;13.374;2023-05-07T13:06:30;17.40;95.00
2130;DHT22;1071;52.544;13.374;2023-05-07T13:08:57;17.50;95.20
2130;DHT22;1071;52.544;13.374;2023-05-07T13:11:25;17.40;94.50
2130;DHT22;1071;52.544;13.374;2023-05-07T13:13:52;17.40;94.80
2130;DHT22;1071;52.544;13.374;2023-05-07T13:16:19;17.20;94.50
2130;DHT22;1071;52.544;13.374;2023-05-07T13:18:46;17.20;94.50
2130;DHT22;1071;52.544;13.374;2023-05-07T13:21:13;17.30;94.40
2130;DHT22;1071;52.544;13.374;2023-05-07T13:23:40;17.40;94.70
2130;DHT22;1071;52.544;13.374;2023-05-07T13:26:07;17.50;94.10
2130;DHT22;1071;52.544;13.374;2023-05-07T13:28:35;17.50;94.20
2130;DHT22;1071;52.544;13.374;2023-05-07T13:31:02;17.60;94.10
2130;DHT22;1071;52.544;13.374;2023-05-07T13:33:29;17.60;94.20
2130;DHT22;1071;52.544;13.374;2023-05-07T13:35:57;17.60;94.00
2130;DHT22;1071;52.544;13.374;2023-05-07T13:38:25;17.60;93.90
2130;DHT22;1071;52.544;13.374;2023-05-07T13:40:53;17.60;93.70
2130;DHT22;1071;52.544;13.374;2023-05-07T13:43:20;17.60;93.50
2130;DHT22;1071;52.544;13.374;2023-05-07T13:45:48;17.60;93.80
2130;DHT22;1071;52.544;13.374;2023-05-07T13:48:15;17.60;93.40
2130;DHT22;1071;52.544;13.374;2023-05-07T13:50:42;17.60;93.50
2130;DHT22;1071;52.544;13.374;2023-05-07T13:53:09;17.50;93.10
2130;DHT22;1071;52.544;13.374;2023-05-07T13:55:36;17.30;93.30
2130;DHT22;1071;52.544;13.374;2023-05-07T13:58:03;17.40;93.30
2130;DHT22;1071;52.544;13.374;2023-05-07T14:00:30;17.30;93.10
2130;DHT22;1071;52.544;13.374;2023-05-07T14:02:59;17.20;93.50
2130;DHT22;1071;52.544;13.374;2023-05-07T14:05:26;17.10;93.30
2130;DHT22;1071;52.544;13.374;2023-05-07T14:07:53;17.20;93.40
2130;DHT22;1071;52.544;13.374;2023-05-07T14:10:21;17.20;93.40
2130;DHT22;1071;52.544;13.374;2023-05-07T14:12:47;17.20;93.40
2130;DHT22;1071;52.544;13.374;2023-05-07T14:15:15;17.10;93.10
2130;DHT22;1071;52.544;13.374;2023-05-07T14:17:42;17.20;93.40
2130;DHT22;1071;52.544;13.374;2023-05-07T14:20:11;17.10;93.20
2130;DHT22;1071;52.544;13.374;2023-05-07T14:22:39;17.20;93.50
2130;DHT22;1071;52.544;13.374;2023-05-07T14:25:07;17.20;92.90
2130;DHT22;1071;52.544;13.374;2023-05-07T14:27:34;17.20;93.00
2130;DHT22;1071;52.544;13.374;2023-05-07T14:30:02;17.20;92.80
2130;DHT22;1071;52.544;13.374;2023-05-07T14:32:29;17.20;92.70
2130;DHT22;1071;52.544;13.374;2023-05-07T14:34:56;17.30;92.80
2130;DHT22;1071;52.544;13.374;2023-05-07T14:37:24;17.30;92.90
2130;DHT22;1071;52.544;13.374;2023-05-07T14:39:51;17.30;92.60
2130;DHT22;1071;52.544;13.374;2023-05-07T14:42:18;17.30;92.40
2130;DHT22;1071;52.544;13.374;2023-05-07T14:44:46;17.40;92.40
2130;DHT22;1071;52.544;13.374;2023-05-07T14:47:14;17.50;92.40
2130;DHT22;1071;52.544;13.374;2023-05-07T14:49:41;17.50;91.70
2130;DHT22;1071;52.544;13.374;2023-05-07T14:52:08;17.50;91.40
2130;DHT22;1071;52.544;13.374;2023-05-07T14:54:37;17.60;91.10
2130;DHT22;1071;52.544;13.374;2023-05-07T14:57:05;17.70;91.20
2130;DHT22;1071;52.544;13.374;2023-05-07T14:59:33;17.70;90.50
2130;DHT22;1071;52.544;13.374;2023-05-07T15:02:00;17.80;90.70
2130;DHT22;1071;52.544;13.374;2023-05-07T15:04:27;17.80;90.30
2130;DHT22;1071;52.544;13.374;2023-05-07T15:06:54;17.80;90.60
2130;DHT22;1071;52.544;13.374;2023-05-07T15:09:21;17.80;91.30
2130;DHT22;1071;52.544;13.374;2023-05-07T15:11:50;17.80;91.60
2130;DHT22;1071;52.544;13.374;2023-05-07T15:14:17;17.80;91.80
2130;DHT22;1071;52.544;13.374;2023-05-07T15:16:44;17.80;91.80
2130;DHT22;1071;52.544;13.374;2023-05-07T15:19:11;17.80;91.50
2130;DHT22;1071;52.544;13.374;2023-05-07T15:21:40;17.60;91.30
2130;DHT22;1071;52.544;13.374;2023-05-07T15:24:07;17.60;91.40
2130;DHT22;1071;52.544;13.374;2023-05-07T15:26:34;17.50;91.50
2130;DHT22;1071;52.544;13.374;2023-05-07T15:29:03;17.40;91.60
2130;DHT22;1071;52.544;13.374;2023-05-07T15:31:35;17.30;91.60
2130;DHT22;1071;52.544;13.374;2023-05-07T15:34:03;17.20;91.70
2130;DHT22;1071;52.544;13.374;2023-05-07T15:36:30;17.20;92.00
2130;DHT22;1071;52.544;13.374;2023-05-07T15:38:56;17.10;92.10
2130;DHT22;1071;52.544;13.374;2023-05-07T15:41:24;17.10;92.30
2130;DHT22;1071;52.544;13.374;2023-05-07T15:43:52;17.20;92.10
2130;DHT22;1071;52.544;13.374;2023-05-07T15:46:23;17.20;91.80
2130;DHT22;1071;52.544;13.374;2023-05-07T15:48:50;17.30;92.10
2130;DHT22;1071;52.544;13.374;2023-05-07T15:51:17;17.20;92.10
2130;DHT22;1071;52.544;13.374;2023-05-07T15:53:45;17.20;92.20
2130;DHT22;1071;52.544;13.374;2023-05-07T15:56:14;17.20;91.30